createdAt,value
2019-03-09T00:01:52.264Z,100039.00
2019-03-09T00:04:22.652Z,100049.00
2019-03-09T00:06:52.914Z,100044.00
2019-03-09T00:09:23.621Z,100041.00
2019-03-09T00:11:54.414Z,100031.00
2019-03-09T00:14:24.639Z,100023.00
2019-03-09T00:16:54.930Z,100032.00
2019-03-09T00:19:25.274Z,100015.00
2019-03-09T00:21:55.563Z,100004.00
2019-03-09T00:24:44.372Z,100008.00
2019-03-09T00:27:19.509Z,99991.00
2019-03-09T00:30:08.852Z,99991.00
2019-03-09T00:32:39.199Z,99967.00
2019-03-09T00:35:09.445Z,99969.00
2019-03-09T00:37:40.020Z,99961.00
2019-03-09T00:40:12.143Z,99958.00
2019-03-09T00:42:42.602Z,99955.00
2019-03-09T00:45:13.414Z,99943.00
2019-03-09T00:47:43.689Z,99949.00
2019-03-09T00:50:14.056Z,99946.00
2019-03-09T00:52:44.658Z,99951.00
2019-03-09T00:55:14.948Z,99931.00
2019-03-09T00:57:45.070Z,99933.00
2019-03-09T01:00:20.512Z,99923.00
2019-03-09T01:02:51.252Z,99919.00
2019-03-09T01:05:21.527Z,99908.00
2019-03-09T01:07:51.950Z,99900.00
2019-03-09T01:10:22.129Z,99896.00
2019-03-09T01:12:52.693Z,99895.00
2019-03-09T01:15:22.945Z,99876.00
2019-03-09T01:17:53.076Z,99870.00
2019-03-09T01:20:23.602Z,99858.00
2019-03-09T01:22:54.195Z,99851.00
2019-03-09T01:25:24.478Z,99855.00
2019-03-09T01:27:54.737Z,99827.00
2019-03-09T01:30:25.031Z,99827.00
2019-03-09T01:32:55.505Z,99826.00
2019-03-09T01:35:25.772Z,99817.00
2019-03-09T01:37:56.434Z,99812.00
2019-03-09T01:40:26.671Z,99818.00
2019-03-09T01:42:56.909Z,99791.00
2019-03-09T01:45:27.203Z,99801.00
2019-03-09T01:47:58.014Z,99783.00
2019-03-09T01:50:28.502Z,99782.00
2019-03-09T01:52:58.743Z,99788.00
2019-03-09T01:55:29.033Z,99775.00
2019-03-09T01:57:59.127Z,99772.00
2019-03-09T02:00:29.417Z,99763.00
2019-03-09T02:03:00.112Z,99759.00
2019-03-09T02:05:30.317Z,99752.00
2019-03-09T02:08:00.569Z,99756.00
2019-03-09T02:10:30.911Z,99754.00
2019-03-09T02:13:01.316Z,99750.00
2019-03-09T02:15:31.528Z,99722.00
2019-03-09T02:18:01.831Z,99733.00
2019-03-09T02:20:32.108Z,99736.00
2019-03-09T02:23:02.440Z,99715.00
2019-03-09T02:25:32.722Z,99691.00
2019-03-09T02:28:02.874Z,99699.00
2019-03-09T02:30:33.053Z,99678.00
2019-03-09T02:33:03.922Z,99668.00
2019-03-09T02:35:34.069Z,99670.00
2019-03-09T02:38:12.529Z,99687.00
2019-03-09T02:40:42.769Z,99681.00
2019-03-09T02:43:12.918Z,99676.00
2019-03-09T02:45:43.286Z,99669.00
2019-03-09T02:48:13.563Z,99675.00
2019-03-09T02:50:56.505Z,99676.00
2019-03-09T02:53:27.843Z,99679.00
2019-03-09T02:55:58.031Z,99656.00
2019-03-09T02:58:28.276Z,99666.00
2019-03-09T03:01:26.720Z,99651.00
2019-03-09T03:03:56.930Z,99667.00
2019-03-09T03:06:27.162Z,99656.00
2019-03-09T03:08:57.950Z,99660.00
2019-03-09T03:11:28.237Z,99670.00
2019-03-09T03:13:58.859Z,99665.00
2019-03-09T03:16:29.131Z,99656.00
2019-03-09T03:18:59.402Z,99653.00
2019-03-09T03:21:29.607Z,99655.00
2019-03-09T03:24:00.035Z,99641.00
2019-03-09T03:26:30.187Z,99645.00
2019-03-09T03:29:00.767Z,99647.00
2019-03-09T03:31:31.080Z,99649.00
2019-03-09T03:34:01.284Z,99645.00
2019-03-09T03:36:31.793Z,99637.00
2019-03-09T03:39:02.050Z,99635.00
2019-03-09T03:41:32.586Z,99625.00
2019-03-09T03:44:02.873Z,99622.00
2019-03-09T03:46:33.479Z,99626.00
2019-03-09T03:49:04.247Z,99631.00
2019-03-09T03:51:34.507Z,99626.00
2019-03-09T03:54:05.025Z,99622.00
2019-03-09T03:56:35.666Z,99599.00
2019-03-09T03:59:05.958Z,99608.00
2019-03-09T04:01:36.133Z,99610.00
2019-03-09T04:04:06.454Z,99615.00
2019-03-09T04:06:37.239Z,99608.00
2019-03-09T04:09:08.712Z,99622.00
2019-03-09T04:11:39.435Z,99627.00
2019-03-09T04:14:09.599Z,99614.00
2019-03-09T04:16:39.776Z,99618.00
2019-03-09T04:19:09.941Z,99622.00
2019-03-09T04:21:40.389Z,99620.00
2019-03-09T04:24:10.548Z,99631.00
2019-03-09T04:26:41.113Z,99645.00
2019-03-09T04:29:11.596Z,99631.00
2019-03-09T04:31:41.848Z,99631.00
2019-03-09T04:34:12.075Z,99631.00
2019-03-09T04:36:42.291Z,99626.00
2019-03-09T04:39:12.584Z,99652.00
2019-03-09T04:41:43.083Z,99657.00
2019-03-09T04:44:13.354Z,99673.00
2019-03-09T04:46:43.376Z,99691.00
2019-03-09T04:49:13.511Z,99685.00
2019-03-09T04:51:43.538Z,99700.00
2019-03-09T04:54:13.872Z,99693.00
2019-03-09T04:56:44.107Z,99710.00
2019-03-09T04:59:14.686Z,99724.00
2019-03-09T05:01:45.134Z,99713.00
2019-03-09T05:04:49.141Z,99718.00
2019-03-09T05:07:32.726Z,99733.00
2019-03-09T05:10:33.829Z,99739.00
2019-03-09T05:13:09.878Z,99745.00
2019-03-09T05:15:40.362Z,99730.00
2019-03-09T05:18:10.579Z,99737.00
2019-03-09T05:20:41.053Z,99741.00
2019-03-09T05:23:11.288Z,99741.00
2019-03-09T05:25:41.813Z,99746.00
2019-03-09T05:28:12.234Z,99758.00
2019-03-09T05:30:46.853Z,99751.00
2019-03-09T05:33:17.403Z,99756.00
2019-03-09T05:35:47.610Z,99771.00
2019-03-09T05:38:18.122Z,99755.00
2019-03-09T05:40:48.671Z,99755.00
2019-03-09T05:43:18.931Z,99744.00
2019-03-09T05:45:49.052Z,99756.00
2019-03-09T05:48:19.471Z,99758.00
2019-03-09T05:50:49.756Z,99753.00
2019-03-09T05:53:22.465Z,99760.00
2019-03-09T05:55:52.678Z,99768.00
2019-03-09T05:58:23.209Z,99761.00
2019-03-09T06:00:53.445Z,99770.00
2019-03-09T06:03:24.007Z,99781.00
2019-03-09T06:06:04.545Z,99788.00
2019-03-09T06:08:34.922Z,99787.00
2019-03-09T06:11:05.307Z,99776.00
2019-03-09T06:13:54.717Z,99788.00
2019-03-09T06:16:25.623Z,99801.00
2019-03-09T06:18:55.783Z,99797.00
2019-03-09T06:21:26.305Z,99807.00
2019-03-09T06:23:57.184Z,99822.00
2019-03-09T06:26:27.795Z,99825.00
2019-03-09T06:28:58.126Z,99824.00
2019-03-09T06:31:28.265Z,99825.00
2019-03-09T06:33:58.783Z,99826.00
2019-03-09T06:37:02.650Z,99827.00
2019-03-09T06:39:46.489Z,99836.00
2019-03-09T06:42:46.673Z,99830.00
2019-03-09T06:45:18.772Z,99836.00
2019-03-09T06:47:49.124Z,99832.00
2019-03-09T06:50:21.247Z,99841.00
2019-03-09T06:52:51.471Z,99840.00
2019-03-09T06:55:21.732Z,99845.00
2019-03-09T06:57:52.060Z,99837.00
2019-03-09T07:00:42.446Z,99851.00
2019-03-09T07:03:13.132Z,99850.00
2019-03-09T07:05:43.214Z,99873.00
2019-03-09T07:08:13.424Z,99867.00
2019-03-09T07:10:43.745Z,99864.00
2019-03-09T07:13:14.078Z,99878.00
2019-03-09T07:15:46.427Z,99873.00
2019-03-09T07:18:22.698Z,99865.00
2019-03-09T07:20:53.587Z,99878.00
2019-03-09T07:23:23.978Z,99883.00
2019-03-09T07:25:54.129Z,99886.00
2019-03-09T07:28:24.408Z,99893.00
2019-03-09T07:30:54.921Z,99890.00
2019-03-09T07:33:25.198Z,99880.00
2019-03-09T07:35:55.576Z,99865.00
2019-03-09T07:38:26.395Z,99888.00
2019-03-09T07:40:56.845Z,99882.00
2019-03-09T07:43:27.736Z,99898.00
2019-03-09T07:45:57.983Z,99899.00
2019-03-09T07:48:28.564Z,99906.00
2019-03-09T07:50:58.763Z,99898.00
2019-03-09T07:53:28.965Z,99893.00
2019-03-09T07:55:59.274Z,99904.00
2019-03-09T07:58:29.758Z,99924.00
2019-03-09T08:01:00.511Z,99912.00
2019-03-09T08:03:30.865Z,99917.00
2019-03-09T08:06:01.695Z,99915.00
2019-03-09T08:08:31.837Z,99896.00
2019-03-09T08:11:02.044Z,99921.00
2019-03-09T08:13:32.396Z,99918.00
2019-03-09T08:16:02.683Z,99911.00
2019-03-09T08:18:32.962Z,99917.00
2019-03-09T08:21:03.337Z,99925.00
2019-03-09T08:23:33.674Z,99925.00
2019-03-09T08:26:03.917Z,99926.00
2019-03-09T08:28:34.660Z,99926.00
2019-03-09T08:31:04.820Z,99937.00
2019-03-09T08:33:35.388Z,99929.00
2019-03-09T08:36:05.739Z,99939.00
2019-03-09T08:38:36.112Z,99942.00
2019-03-09T08:41:06.435Z,99945.00
2019-03-09T08:43:36.766Z,99955.00
2019-03-09T08:46:07.348Z,99967.00
2019-03-09T08:48:37.448Z,99969.00
2019-03-09T08:51:07.684Z,99975.00
2019-03-09T08:53:38.265Z,99951.00
2019-03-09T08:56:08.470Z,99955.00
2019-03-09T08:58:39.119Z,99964.00
2019-03-09T09:01:09.414Z,99948.00
2019-03-09T09:03:39.609Z,99951.00
2019-03-09T09:06:10.085Z,99945.00
2019-03-09T09:08:40.360Z,99951.00
2019-03-09T09:11:10.611Z,99946.00
2019-03-09T09:13:41.417Z,99929.00
2019-03-09T09:16:11.704Z,99931.00
2019-03-09T09:18:41.961Z,99932.00
2019-03-09T09:21:12.240Z,99939.00
2019-03-09T09:23:42.575Z,99926.00
2019-03-09T09:26:12.649Z,99917.00
2019-03-09T09:28:42.959Z,99918.00
2019-03-09T09:31:13.225Z,99919.00
2019-03-09T09:33:43.445Z,99913.00
2019-03-09T09:36:13.757Z,99929.00
2019-03-09T09:38:44.359Z,99923.00
2019-03-09T09:41:14.850Z,99930.00
2019-03-09T09:43:45.132Z,99907.00
2019-03-09T09:46:15.444Z,99906.00
2019-03-09T09:48:45.961Z,99916.00
2019-03-09T09:51:16.418Z,99914.00
2019-03-09T09:53:46.763Z,99925.00
2019-03-09T09:56:17.318Z,99927.00
2019-03-09T09:58:47.886Z,99935.00
2019-03-09T10:01:18.095Z,99932.00
2019-03-09T10:03:48.281Z,99947.00
2019-03-09T10:06:18.565Z,99947.00
2019-03-09T10:08:49.385Z,99948.00
2019-03-09T10:11:19.848Z,99937.00
2019-03-09T10:13:50.054Z,99942.00
2019-03-09T10:16:20.605Z,99941.00
2019-03-09T10:18:50.977Z,99935.00
2019-03-09T10:21:21.246Z,99929.00
2019-03-09T10:23:51.579Z,99917.00
2019-03-09T10:26:24.068Z,99897.00
2019-03-09T10:28:54.115Z,99890.00
2019-03-09T10:31:24.382Z,99913.00
2019-03-09T10:33:55.192Z,99937.00
2019-03-09T10:36:25.709Z,99939.00
2019-03-09T10:38:56.046Z,99933.00
2019-03-09T10:41:26.614Z,99937.00
2019-03-09T10:43:57.094Z,99931.00
2019-03-09T10:46:27.309Z,99908.00
2019-03-09T10:48:57.618Z,99935.00
2019-03-09T10:51:27.853Z,99933.00
2019-03-09T10:53:58.071Z,99918.00
2019-03-09T10:56:28.417Z,99947.00
2019-03-09T10:58:58.737Z,99928.00
2019-03-09T11:01:29.379Z,99931.00
2019-03-09T11:03:59.789Z,99923.00
2019-03-09T11:06:30.079Z,99920.00
2019-03-09T11:09:00.346Z,99901.00
2019-03-09T11:11:30.687Z,99902.00
2019-03-09T11:14:00.934Z,99897.00
2019-03-09T11:16:31.322Z,99891.00
2019-03-09T11:19:01.751Z,99882.00
2019-03-09T11:21:31.986Z,99879.00
2019-03-09T11:24:02.303Z,99859.00
2019-03-09T11:26:32.505Z,99867.00
2019-03-09T11:29:02.831Z,99885.00
2019-03-09T11:31:33.181Z,99905.00
2019-03-09T11:34:03.387Z,99891.00
2019-03-09T11:36:33.875Z,99899.00
2019-03-09T11:39:06.015Z,99898.00
2019-03-09T11:41:36.323Z,99869.00
2019-03-09T11:44:06.593Z,99899.00
2019-03-09T11:46:37.473Z,99878.00
2019-03-09T11:49:07.682Z,99884.00
2019-03-09T11:51:37.953Z,99871.00
2019-03-09T11:54:08.720Z,99874.00
2019-03-09T11:56:39.517Z,99875.00
2019-03-09T11:59:09.845Z,99870.00
2019-03-09T12:01:40.093Z,99873.00
2019-03-09T12:04:10.284Z,99886.00
2019-03-09T12:06:40.801Z,99865.00
2019-03-09T12:09:11.761Z,99850.00
2019-03-09T12:11:42.637Z,99843.00
2019-03-09T12:14:13.810Z,99848.00
2019-03-09T12:16:44.106Z,99859.00
2019-03-09T12:19:14.778Z,99842.00
2019-03-09T12:21:44.894Z,99845.00
2019-03-09T12:24:18.743Z,99860.00
2019-03-09T12:26:47.579Z,99853.00
2019-03-09T12:29:18.517Z,99853.00
2019-03-09T12:31:49.080Z,99855.00
2019-03-09T12:34:19.710Z,99867.00
2019-03-09T12:36:50.304Z,99858.00
2019-03-09T12:39:20.613Z,99847.00
2019-03-09T12:41:52.541Z,99842.00
2019-03-09T12:44:23.295Z,99845.00
2019-03-09T12:46:53.488Z,99851.00
2019-03-09T12:49:23.902Z,99847.00
2019-03-09T12:51:54.451Z,99827.00
2019-03-09T12:54:25.103Z,99838.00
2019-03-09T12:56:55.590Z,99826.00
2019-03-09T12:59:26.057Z,99812.00
2019-03-09T13:01:56.551Z,99796.00
2019-03-09T13:04:26.871Z,99770.00
2019-03-09T13:06:57.127Z,99751.00
2019-03-09T13:09:27.306Z,99735.00
2019-03-09T13:11:58.159Z,99728.00
2019-03-09T13:14:28.769Z,99727.00
2019-03-09T13:16:59.701Z,99722.00
2019-03-09T13:19:29.945Z,99729.00
2019-03-09T13:22:01.067Z,99713.00
2019-03-09T13:24:31.519Z,99705.00
2019-03-09T13:27:01.914Z,99691.00
2019-03-09T13:29:32.077Z,99691.00
2019-03-09T13:32:02.769Z,99673.00
2019-03-09T13:34:33.192Z,99658.00
2019-03-09T13:37:03.439Z,99654.00
2019-03-09T13:39:33.793Z,99653.00
2019-03-09T13:42:04.095Z,99636.00
2019-03-09T13:44:34.366Z,99629.00
2019-03-09T13:47:04.767Z,99620.00
2019-03-09T13:49:35.077Z,99610.00
2019-03-09T13:52:05.366Z,99590.00
2019-03-09T13:54:35.482Z,99573.00
2019-03-09T13:57:06.113Z,99563.00
2019-03-09T13:59:36.670Z,99543.00
2019-03-09T14:02:07.068Z,99556.00
2019-03-09T14:04:37.332Z,99546.00
2019-03-09T14:07:07.929Z,99557.00
2019-03-09T14:09:38.570Z,99591.00
2019-03-09T14:12:09.135Z,99628.00
2019-03-09T14:14:39.917Z,99607.00
2019-03-09T14:17:11.833Z,99627.00
2019-03-09T14:19:42.106Z,99635.00
2019-03-09T14:22:12.327Z,99629.00
2019-03-09T14:24:42.614Z,99610.00
2019-03-09T14:27:15.112Z,99601.00
2019-03-09T14:29:45.235Z,99577.00
2019-03-09T14:32:15.578Z,99576.00
2019-03-09T14:34:46.380Z,99563.00
2019-03-09T14:37:16.665Z,99549.00
2019-03-09T14:39:47.277Z,99556.00
2019-03-09T14:42:17.635Z,99553.00
2019-03-09T14:44:48.545Z,99549.00
2019-03-09T14:47:18.816Z,99534.00
2019-03-09T14:49:49.022Z,99539.00
2019-03-09T14:52:19.951Z,99530.00
2019-03-09T14:54:50.211Z,99514.00
2019-03-09T14:57:20.492Z,99503.00
2019-03-09T14:59:51.524Z,99510.00
2019-03-09T15:02:22.282Z,99530.00
2019-03-09T15:04:52.915Z,99573.00
2019-03-09T15:07:23.768Z,99556.00
2019-03-09T15:09:54.582Z,99538.00
2019-03-09T15:12:24.680Z,99532.00
2019-03-09T15:14:54.835Z,99542.00
2019-03-09T15:17:25.635Z,99534.00
2019-03-09T15:19:55.903Z,99536.00
2019-03-09T15:22:26.498Z,99532.00
2019-03-09T15:24:56.820Z,99532.00
2019-03-09T15:27:27.349Z,99533.00
2019-03-09T15:29:57.851Z,99533.00
2019-03-09T15:32:28.448Z,99528.00
2019-03-09T15:35:00.486Z,99530.00
2019-03-09T15:37:30.700Z,99539.00
2019-03-09T15:40:01.790Z,99553.00
2019-03-09T15:42:32.457Z,99611.00
2019-03-09T15:45:02.928Z,99652.00
2019-03-09T15:47:33.103Z,99647.00
2019-03-09T15:50:03.346Z,99650.00
2019-03-09T15:52:33.961Z,99669.00
2019-03-09T15:55:04.384Z,99655.00
2019-03-09T15:57:34.977Z,99653.00
2019-03-09T16:00:07.951Z,99596.00
2019-03-09T16:02:38.176Z,99620.00
2019-03-09T16:05:08.488Z,99598.00
2019-03-09T16:07:38.999Z,99598.00
2019-03-09T16:10:11.184Z,99604.00
2019-03-09T16:12:41.910Z,99608.00
2019-03-09T16:15:13.612Z,99604.00
2019-03-09T16:17:43.935Z,99603.00
2019-03-09T16:20:16.102Z,99616.00
2019-03-09T16:22:46.632Z,99625.00
2019-03-09T16:25:16.979Z,99615.00
2019-03-09T16:27:47.559Z,99634.00
2019-03-09T16:30:19.232Z,99650.00
2019-03-09T16:32:49.546Z,99673.00
2019-03-09T16:35:19.843Z,99680.00
2019-03-09T16:37:50.109Z,99675.00
2019-03-09T16:40:20.496Z,99700.00
2019-03-09T16:42:50.706Z,99685.00
2019-03-09T16:45:20.998Z,99710.00
2019-03-09T16:47:51.540Z,99718.00
2019-03-09T16:50:21.877Z,99726.00
2019-03-09T16:52:52.100Z,99745.00
2019-03-09T16:55:22.377Z,99753.00
2019-03-09T16:57:52.648Z,99748.00
2019-03-09T17:00:22.901Z,99779.00
2019-03-09T17:02:53.144Z,99771.00
2019-03-09T17:05:23.894Z,99788.00
2019-03-09T17:07:54.721Z,99812.00
2019-03-09T17:10:25.116Z,99828.00
2019-03-09T17:12:55.287Z,99823.00
2019-03-09T17:15:25.571Z,99850.00
2019-03-09T17:17:55.710Z,99850.00
2019-03-09T17:20:25.896Z,99876.00
2019-03-09T17:22:56.441Z,99866.00
2019-03-09T17:25:26.917Z,99882.00
2019-03-09T17:27:57.533Z,99897.00
2019-03-09T17:30:27.977Z,99928.00
2019-03-09T17:32:58.449Z,99903.00
2019-03-09T17:35:32.916Z,99912.00
2019-03-09T17:38:03.656Z,99936.00
2019-03-09T17:40:34.180Z,99953.00
2019-03-09T17:43:04.323Z,99970.00
2019-03-09T17:45:34.849Z,99975.00
2019-03-09T17:48:05.411Z,99993.00
2019-03-09T17:50:35.686Z,99997.00
2019-03-09T17:53:06.243Z,100021.00
2019-03-09T17:55:36.542Z,100038.00
2019-03-09T17:58:26.183Z,100025.00
2019-03-09T18:00:56.516Z,100055.00
2019-03-09T18:03:27.362Z,100061.00
2019-03-09T18:05:57.584Z,100070.00
2019-03-09T18:08:27.877Z,100104.00
2019-03-09T18:11:02.203Z,100134.00
2019-03-09T18:13:32.820Z,100123.00
2019-03-09T18:16:03.010Z,100146.00
2019-03-09T18:18:33.775Z,100152.00
2019-03-09T18:21:04.078Z,100163.00
2019-03-09T18:23:34.765Z,100169.00
2019-03-09T18:26:05.077Z,100169.00
2019-03-09T18:28:35.724Z,100175.00
2019-03-09T18:31:05.999Z,100181.00
2019-03-09T18:33:36.304Z,100191.00
2019-03-09T18:36:06.788Z,100192.00
2019-03-09T18:38:37.345Z,100206.00
2019-03-09T18:41:07.484Z,100198.00
2019-03-09T18:43:37.662Z,100213.00
2019-03-09T18:46:07.935Z,100227.00
2019-03-09T18:48:38.261Z,100226.00
2019-03-09T18:51:08.489Z,100227.00
2019-03-09T18:53:39.060Z,100242.00
2019-03-09T18:56:09.408Z,100242.00
2019-03-09T18:58:39.949Z,100263.00
2019-03-09T19:01:10.217Z,100257.00
2019-03-09T19:03:40.780Z,100258.00
2019-03-09T19:06:11.254Z,100262.00
2019-03-09T19:08:41.811Z,100260.00
2019-03-09T19:11:12.642Z,100274.00
2019-03-09T19:13:43.283Z,100281.00
2019-03-09T19:16:13.532Z,100270.00
2019-03-09T19:18:43.875Z,100284.00
2019-03-09T19:21:14.067Z,100281.00
2019-03-09T19:23:44.279Z,100294.00
2019-03-09T19:26:14.558Z,100296.00
2019-03-09T19:28:44.874Z,100284.00
2019-03-09T19:31:15.351Z,100290.00
2019-03-09T19:33:45.665Z,100289.00
2019-03-09T19:36:15.854Z,100283.00
2019-03-09T19:38:46.613Z,100285.00
2019-03-09T19:41:16.904Z,100283.00
2019-03-09T19:43:47.204Z,100292.00
2019-03-09T19:46:17.561Z,100295.00
2019-03-09T19:48:47.966Z,100291.00
2019-03-09T19:51:18.163Z,100295.00
2019-03-09T19:53:49.166Z,100291.00
2019-03-09T19:56:20.360Z,100300.00
2019-03-09T19:58:50.811Z,100299.00
2019-03-09T20:01:21.394Z,100296.00
2019-03-09T20:03:51.560Z,100307.00
2019-03-09T20:06:21.803Z,100313.00
2019-03-09T20:08:52.713Z,100309.00
2019-03-09T20:11:22.984Z,100315.00
2019-03-09T20:13:53.218Z,100301.00
2019-03-09T20:16:23.458Z,100310.00
2019-03-09T20:18:54.019Z,100326.00
2019-03-09T20:21:24.314Z,100322.00
2019-03-09T20:23:54.545Z,100319.00
2019-03-09T20:26:24.785Z,100335.00
2019-03-09T20:28:56.286Z,100340.00
2019-03-09T20:31:26.513Z,100334.00
2019-03-09T20:33:56.779Z,100336.00
2019-03-09T20:36:27.669Z,100335.00
2019-03-09T20:38:57.919Z,100330.00
2019-03-09T20:41:28.507Z,100336.00
2019-03-09T20:43:58.745Z,100334.00
2019-03-09T20:46:28.952Z,100335.00
2019-03-09T20:49:01.209Z,100339.00
2019-03-09T20:51:31.449Z,100333.00
2019-03-09T20:54:02.009Z,100333.00
2019-03-09T20:56:32.370Z,100326.00
2019-03-09T20:59:02.555Z,100346.00
2019-03-09T21:01:32.873Z,100344.00
2019-03-09T21:04:03.166Z,100339.00
2019-03-09T21:06:33.332Z,100345.00
2019-03-09T21:09:05.587Z,100350.00
2019-03-09T21:11:35.708Z,100346.00
2019-03-09T21:14:06.023Z,100338.00
2019-03-09T21:16:36.635Z,100356.00
2019-03-09T21:19:06.859Z,100349.00
2019-03-09T21:21:37.359Z,100352.00
2019-03-09T21:24:07.998Z,100352.00
2019-03-09T21:26:38.129Z,100348.00
2019-03-09T21:29:08.686Z,100354.00
2019-03-09T21:31:38.981Z,100335.00
2019-03-09T21:34:09.246Z,100342.00
2019-03-09T21:36:39.716Z,100340.00
2019-03-09T21:39:10.950Z,100354.00
2019-03-09T21:41:41.130Z,100353.00
2019-03-09T21:44:11.206Z,100354.00
2019-03-09T21:46:41.515Z,100352.00
2019-03-09T21:49:11.906Z,100358.00
2019-03-09T21:51:42.361Z,100354.00
2019-03-09T21:54:12.643Z,100340.00
2019-03-09T21:56:42.843Z,100344.00
2019-03-09T21:59:13.038Z,100349.00
2019-03-09T22:01:43.162Z,100359.00
2019-03-09T22:04:13.624Z,100354.00
2019-03-09T22:06:43.987Z,100358.00
2019-03-09T22:09:14.118Z,100355.00
2019-03-09T22:11:44.475Z,100350.00
2019-03-09T22:14:14.937Z,100337.00
2019-03-09T22:16:45.252Z,100348.00
2019-03-09T22:19:15.541Z,100351.00
2019-03-09T22:21:45.722Z,100365.00
2019-03-09T22:24:16.283Z,100370.00
2019-03-09T22:26:46.403Z,100369.00
2019-03-09T22:29:16.898Z,100381.00
2019-03-09T22:31:47.465Z,100376.00
2019-03-09T22:34:17.788Z,100372.00
2019-03-09T22:36:48.333Z,100364.00
2019-03-09T22:39:18.564Z,100368.00
2019-03-09T22:41:49.081Z,100360.00
2019-03-09T22:44:19.261Z,100363.00
2019-03-09T22:46:49.568Z,100364.00
2019-03-09T22:49:20.020Z,100365.00
2019-03-09T22:51:50.263Z,100357.00
2019-03-09T22:54:20.467Z,100352.00
2019-03-09T22:56:50.776Z,100345.00
2019-03-09T22:59:20.900Z,100343.00
2019-03-09T23:01:51.146Z,100332.00
2019-03-09T23:04:21.403Z,100343.00
2019-03-09T23:06:51.850Z,100336.00
2019-03-09T23:09:22.071Z,100334.00
2019-03-09T23:11:52.274Z,100335.00
2019-03-09T23:14:22.570Z,100343.00
2019-03-09T23:16:53.084Z,100347.00
2019-03-09T23:19:23.189Z,100338.00
2019-03-09T23:21:53.364Z,100339.00
2019-03-09T23:24:24.027Z,100343.00
2019-03-09T23:26:54.281Z,100355.00
2019-03-09T23:29:24.648Z,100349.00
2019-03-09T23:31:54.806Z,100337.00
2019-03-09T23:34:25.274Z,100337.00
2019-03-09T23:36:55.626Z,100331.00
2019-03-09T23:39:26.265Z,100332.00
2019-03-09T23:41:56.860Z,100345.00
2019-03-09T23:44:27.220Z,100333.00
2019-03-09T23:46:57.523Z,100338.00
2019-03-09T23:49:27.786Z,100322.00
2019-03-09T23:51:58.154Z,100333.00
2019-03-09T23:54:28.996Z,100325.00
2019-03-09T23:56:59.538Z,100320.00
2019-03-09T23:59:29.925Z,100321.00
